createdAt,value
2023-05-22T00:02:17.033Z,15.52
2023-05-22T00:04:43.653Z,14.88
2023-05-22T00:07:10.250Z,16.05
2023-05-22T00:09:36.768Z,16.08
2023-05-22T00:12:03.468Z,15.70
2023-05-22T00:14:29.971Z,16.67
2023-05-22T00:17:00.280Z,15.55
2023-05-22T00:19:26.878Z,15.73
2023-05-22T00:21:54.292Z,15.45
2023-05-22T00:24:20.873Z,16.27
2023-05-22T00:26:47.502Z,14.85
2023-05-22T00:29:14.131Z,14.30
2023-05-22T00:31:40.685Z,16.08
2023-05-22T00:34:07.338Z,14.85
2023-05-22T00:36:33.917Z,14.95
2023-05-22T00:39:00.471Z,14.80
2023-05-22T00:41:27.227Z,15.60
2023-05-22T00:43:53.734Z,15.13
2023-05-22T00:46:24.532Z,14.63
2023-05-22T00:48:52.556Z,15.43
2023-05-22T00:51:21.907Z,14.77
2023-05-22T00:53:50.274Z,15.80
2023-05-22T00:56:17.456Z,16.00
2023-05-22T00:58:44.293Z,15.63
2023-05-22T01:01:11.600Z,15.80
2023-05-22T01:03:44.838Z,15.80
2023-05-22T01:06:15.978Z,15.30
2023-05-22T01:08:42.871Z,15.50
2023-05-22T01:11:22.181Z,16.10
2023-05-22T01:14:10.889Z,15.45
2023-05-22T01:16:46.748Z,15.07
2023-05-22T01:19:32.013Z,14.52
2023-05-22T01:22:31.967Z,14.68
2023-05-22T01:25:52.955Z,15.18
2023-05-22T01:28:41.364Z,14.45
2023-05-22T01:31:17.961Z,15.43
2023-05-22T01:34:00.546Z,15.23
2023-05-22T01:36:35.019Z,14.88
2023-05-22T01:39:04.575Z,13.53
2023-05-22T01:41:32.353Z,13.93
2023-05-22T01:44:00.293Z,14.82
2023-05-22T01:46:28.938Z,15.18
2023-05-22T01:48:55.618Z,15.27
2023-05-22T01:51:48.880Z,14.65
2023-05-22T01:54:46.349Z,14.00
2023-05-22T01:57:28.853Z,13.57
2023-05-22T01:59:55.443Z,14.55
2023-05-22T02:02:24.192Z,13.55
2023-05-22T02:04:58.835Z,14.38
2023-05-22T02:07:25.911Z,14.10
2023-05-22T02:09:55.641Z,14.35
2023-05-22T02:12:23.336Z,14.82
2023-05-22T02:14:51.283Z,13.85
2023-05-22T02:17:18.206Z,13.63
2023-05-22T02:19:45.247Z,13.38
2023-05-22T02:22:14.757Z,14.45
2023-05-22T02:24:47.312Z,13.77
2023-05-22T02:27:14.341Z,14.15
2023-05-22T02:29:40.935Z,13.85
2023-05-22T02:32:07.835Z,14.23
2023-05-22T02:34:35.008Z,14.48
2023-05-22T02:37:04.700Z,13.95
2023-05-22T02:39:31.308Z,13.80
2023-05-22T02:41:57.795Z,14.30
2023-05-22T02:44:24.299Z,16.50
2023-05-22T02:46:50.822Z,15.07
2023-05-22T02:49:17.361Z,16.83
2023-05-22T02:51:47.523Z,14.80
2023-05-22T02:54:15.803Z,15.93
2023-05-22T02:56:43.379Z,15.65
2023-05-22T02:59:10.150Z,15.93
2023-05-22T03:01:38.727Z,14.85
2023-05-22T03:04:06.508Z,15.90
2023-05-22T03:06:34.213Z,15.73
2023-05-22T03:09:01.190Z,15.38
2023-05-22T03:11:27.668Z,16.13
2023-05-22T03:13:54.129Z,16.60
2023-05-22T03:16:20.677Z,14.95
2023-05-22T03:18:47.303Z,15.80
2023-05-22T03:21:13.815Z,15.68
2023-05-22T03:23:40.313Z,16.02
2023-05-22T03:26:06.887Z,16.50
2023-05-22T03:28:33.369Z,15.70
2023-05-22T03:30:59.837Z,16.58
2023-05-22T03:33:26.358Z,16.58
2023-05-22T03:35:53.258Z,16.90
2023-05-22T03:38:19.780Z,16.98
2023-05-22T03:40:46.290Z,16.40
2023-05-22T03:43:12.841Z,16.25
2023-05-22T03:45:39.421Z,16.75
2023-05-22T03:48:06.133Z,17.17
2023-05-22T03:50:32.622Z,17.20
2023-05-22T03:52:59.245Z,15.77
2023-05-22T03:55:26.609Z,15.32
2023-05-22T03:57:53.187Z,15.75
2023-05-22T04:00:19.986Z,15.98
2023-05-22T04:02:46.883Z,15.07
2023-05-22T04:05:13.657Z,15.00
2023-05-22T04:07:40.170Z,16.23
2023-05-22T04:10:07.160Z,16.45
2023-05-22T04:12:33.913Z,16.52
2023-05-22T04:15:00.457Z,15.55
2023-05-22T04:17:32.519Z,17.05
2023-05-22T04:20:00.356Z,16.83
2023-05-22T04:22:27.604Z,18.60
2023-05-22T04:24:54.078Z,17.30
2023-05-22T04:27:22.482Z,18.02
2023-05-22T04:29:50.374Z,15.75
2023-05-22T04:32:21.816Z,16.85
2023-05-22T04:34:52.248Z,15.88
2023-05-22T04:37:20.152Z,15.35
2023-05-22T04:39:47.263Z,17.27
2023-05-22T04:42:14.540Z,16.98
2023-05-22T04:44:41.924Z,16.80
2023-05-22T04:47:14.365Z,17.10
2023-05-22T04:49:42.466Z,17.08
2023-05-22T04:52:11.522Z,17.75
2023-05-22T04:54:38.943Z,18.33
2023-05-22T04:57:05.801Z,19.08
2023-05-22T04:59:33.435Z,18.80
2023-05-22T05:01:59.962Z,18.33
2023-05-22T05:04:26.474Z,19.42
2023-05-22T05:06:53.535Z,20.17
2023-05-22T05:09:20.105Z,18.10
2023-05-22T05:11:46.593Z,18.48
2023-05-22T05:14:13.078Z,18.67
2023-05-22T05:16:39.646Z,18.73
2023-05-22T05:19:06.218Z,17.83
2023-05-22T05:21:32.744Z,17.35
2023-05-22T05:23:59.268Z,18.60
2023-05-22T05:26:27.247Z,17.98
2023-05-22T05:28:54.122Z,18.20
2023-05-22T05:31:20.827Z,17.75
2023-05-22T05:33:47.369Z,18.42
2023-05-22T05:36:13.911Z,18.45
2023-05-22T05:38:40.701Z,18.70
2023-05-22T05:41:07.407Z,18.88
2023-05-22T05:43:34.026Z,18.80
2023-05-22T05:46:00.803Z,19.80
2023-05-22T05:48:27.336Z,20.30
2023-05-22T05:50:53.843Z,20.77
2023-05-22T05:53:20.385Z,20.13
2023-05-22T05:55:46.920Z,20.70
2023-05-22T05:58:13.515Z,19.92
2023-05-22T06:00:42.357Z,20.80
2023-05-22T06:03:09.024Z,19.45
2023-05-22T06:05:35.816Z,19.85
2023-05-22T06:08:02.410Z,19.70
2023-05-22T06:10:28.961Z,19.33
2023-05-22T06:12:55.638Z,18.80
2023-05-22T06:15:22.110Z,19.00
2023-05-22T06:17:48.604Z,20.58
2023-05-22T06:20:15.647Z,20.98
2023-05-22T06:22:42.309Z,21.60
2023-05-22T06:25:09.833Z,19.80
2023-05-22T06:27:36.715Z,20.05
2023-05-22T06:30:04.896Z,20.52
2023-05-22T06:32:31.709Z,18.33
2023-05-22T06:34:58.450Z,20.10
2023-05-22T06:37:25.015Z,19.40
2023-05-22T06:39:51.543Z,20.38
2023-05-22T06:42:18.051Z,19.25
2023-05-22T06:44:44.636Z,17.70
2023-05-22T06:47:11.527Z,19.90
2023-05-22T06:49:38.148Z,20.58
2023-05-22T06:52:05.495Z,22.95
2023-05-22T06:54:32.085Z,22.73
2023-05-22T06:56:59.514Z,20.75
2023-05-22T06:59:26.110Z,23.23
2023-05-22T07:01:52.747Z,23.38
2023-05-22T07:04:19.374Z,22.13
2023-05-22T07:06:46.308Z,21.88
2023-05-22T07:09:13.899Z,21.95
2023-05-22T07:11:42.828Z,23.08
2023-05-22T07:14:09.882Z,20.00
2023-05-22T07:16:37.252Z,20.77
2023-05-22T07:19:03.983Z,18.13
2023-05-22T07:21:35.460Z,20.33
2023-05-22T07:24:08.514Z,21.42
2023-05-22T07:26:38.408Z,21.73
2023-05-22T07:29:05.053Z,20.60
2023-05-22T07:31:33.684Z,20.13
2023-05-22T07:34:00.562Z,17.77
2023-05-22T07:36:27.080Z,20.27
2023-05-22T07:38:53.589Z,20.20
2023-05-22T07:41:20.102Z,18.05
2023-05-22T07:43:46.627Z,18.00
2023-05-22T07:46:13.222Z,19.42
2023-05-22T07:48:39.771Z,18.40
2023-05-22T07:51:06.480Z,18.38
2023-05-22T07:53:32.989Z,18.80
2023-05-22T07:55:59.477Z,17.08
2023-05-22T07:58:25.991Z,18.33
2023-05-22T08:00:52.800Z,19.95
2023-05-22T08:03:20.486Z,18.60
2023-05-22T08:05:49.085Z,17.15
2023-05-22T08:08:15.793Z,20.17
2023-05-22T08:10:58.273Z,18.77
2023-05-22T08:13:28.978Z,18.92
2023-05-22T08:16:00.111Z,20.67
2023-05-22T08:18:28.952Z,18.90
2023-05-22T08:20:56.003Z,20.95
2023-05-22T08:23:22.530Z,19.88
2023-05-22T08:25:50.220Z,19.80
2023-05-22T08:28:16.831Z,20.95
2023-05-22T08:30:43.436Z,19.90
2023-05-22T08:33:10.023Z,20.95
2023-05-22T08:35:36.663Z,21.83
2023-05-22T08:38:03.168Z,21.17
2023-05-22T08:40:39.361Z,21.50
2023-05-22T08:43:06.610Z,20.40
2023-05-22T08:45:36.893Z,22.40
2023-05-22T08:48:07.190Z,22.00
2023-05-22T08:50:40.944Z,18.70
2023-05-22T08:53:08.378Z,19.73
2023-05-22T08:55:34.963Z,19.40
2023-05-22T08:58:02.249Z,20.95
2023-05-22T09:00:29.696Z,20.73
2023-05-22T09:02:57.524Z,22.30
2023-05-22T09:05:26.821Z,21.52
2023-05-22T09:07:56.571Z,20.65
2023-05-22T09:10:25.647Z,19.88
2023-05-22T09:13:09.394Z,20.60
2023-05-22T09:15:36.958Z,18.33
2023-05-22T09:18:05.205Z,19.10
2023-05-22T09:20:35.990Z,19.48
2023-05-22T09:23:11.553Z,17.73
2023-05-22T09:25:38.170Z,20.13
2023-05-22T09:28:04.742Z,19.73
2023-05-22T09:30:34.697Z,20.58
2023-05-22T09:33:01.545Z,20.35
2023-05-22T09:35:28.179Z,19.50
2023-05-22T09:37:56.155Z,19.27
2023-05-22T09:40:23.271Z,16.88
2023-05-22T09:42:49.870Z,20.67
2023-05-22T09:45:21.480Z,20.38
2023-05-22T09:47:53.646Z,22.10
2023-05-22T09:50:20.604Z,21.88
2023-05-22T09:52:50.764Z,20.80
2023-05-22T09:55:22.904Z,17.98
2023-05-22T09:57:52.205Z,17.67
2023-05-22T10:00:20.061Z,16.15
2023-05-22T10:02:53.645Z,15.30
2023-05-22T10:05:22.115Z,19.45
2023-05-22T10:07:56.138Z,20.90
2023-05-22T10:10:25.767Z,19.17
2023-05-22T10:13:03.515Z,15.95
2023-05-22T10:15:30.956Z,12.70
2023-05-22T10:17:58.669Z,17.10
2023-05-22T10:20:29.541Z,18.23
2023-05-22T10:22:56.863Z,17.20
2023-05-22T10:25:23.734Z,15.52
2023-05-22T10:27:53.623Z,21.25
2023-05-22T10:30:34.776Z,20.13
2023-05-22T10:33:21.721Z,17.27
2023-05-22T10:36:26.735Z,16.50
2023-05-22T10:39:12.204Z,14.20
2023-05-22T10:41:40.020Z,15.50
2023-05-22T10:44:06.762Z,16.00
2023-05-22T10:46:36.447Z,15.77
2023-05-22T10:49:03.231Z,15.02
2023-05-22T10:51:32.403Z,14.88
2023-05-22T10:54:02.261Z,15.90
2023-05-22T10:56:36.238Z,13.88
2023-05-22T10:59:05.362Z,14.30
2023-05-22T11:01:37.885Z,14.25
2023-05-22T11:04:05.189Z,13.73
2023-05-22T11:06:45.779Z,14.95
2023-05-22T11:09:24.497Z,15.93
2023-05-22T11:12:12.976Z,15.90
2023-05-22T11:14:39.634Z,17.17
2023-05-22T11:17:06.609Z,17.35
2023-05-22T11:19:33.531Z,17.10
2023-05-22T11:22:01.833Z,17.58
2023-05-22T11:24:32.786Z,19.33
2023-05-22T11:27:05.869Z,15.40
2023-05-22T11:29:32.852Z,19.85
2023-05-22T11:32:00.251Z,15.65
2023-05-22T11:34:27.296Z,18.40
2023-05-22T11:37:00.677Z,17.25
2023-05-22T11:39:27.565Z,18.05
2023-05-22T11:41:54.408Z,19.83
2023-05-22T11:44:21.304Z,17.13
2023-05-22T11:46:48.140Z,20.45
2023-05-22T11:49:14.785Z,21.50
2023-05-22T11:51:41.545Z,21.75
2023-05-22T11:54:08.170Z,20.63
2023-05-22T11:56:34.689Z,23.20
2023-05-22T11:59:01.510Z,20.25
2023-05-22T12:01:28.071Z,17.75
2023-05-22T12:03:55.033Z,19.98
2023-05-22T12:06:21.882Z,21.08
2023-05-22T12:08:48.484Z,27.30
2023-05-22T12:11:15.322Z,26.80
2023-05-22T12:13:41.897Z,48.88
2023-05-22T12:16:19.635Z,23.25
2023-05-22T12:18:46.296Z,22.17
2023-05-22T12:21:13.040Z,23.23
2023-05-22T12:23:49.449Z,26.23
2023-05-22T12:26:16.090Z,24.23
2023-05-22T12:28:43.220Z,25.70
2023-05-22T12:31:09.796Z,22.60
2023-05-22T12:33:36.336Z,26.65
2023-05-22T12:36:07.907Z,25.30
2023-05-22T12:38:35.665Z,26.40
2023-05-22T12:41:02.267Z,19.63
2023-05-22T12:43:29.052Z,23.42
2023-05-22T12:45:55.728Z,22.60
2023-05-22T12:48:23.023Z,20.00
2023-05-22T12:50:49.856Z,27.42
2023-05-22T12:53:16.495Z,22.77
2023-05-22T12:55:43.470Z,10.98
2023-05-22T12:58:10.044Z,20.17
2023-05-22T13:00:36.654Z,23.98
2023-05-22T13:03:04.811Z,23.80
2023-05-22T13:05:31.449Z,21.42
2023-05-22T13:07:58.084Z,22.02
2023-05-22T13:10:24.829Z,24.65
2023-05-22T13:12:51.639Z,22.88
2023-05-22T13:15:18.720Z,21.77
2023-05-22T13:17:45.857Z,22.67
2023-05-22T13:20:13.043Z,20.65
2023-05-22T13:22:40.309Z,21.80
2023-05-22T13:25:07.130Z,23.30
2023-05-22T13:27:34.176Z,21.60
2023-05-22T13:30:00.805Z,24.67
2023-05-22T13:32:27.417Z,22.35
2023-05-22T13:34:54.112Z,20.52
2023-05-22T13:37:20.950Z,22.73
2023-05-22T13:39:47.624Z,23.65
2023-05-22T13:42:14.500Z,12.20
2023-05-22T13:44:42.024Z,21.65
2023-05-22T13:47:08.762Z,21.08
2023-05-22T13:49:35.403Z,21.73
2023-05-22T13:52:02.075Z,19.70
2023-05-22T13:54:28.803Z,16.38
2023-05-22T13:56:57.678Z,19.83
2023-05-22T13:59:24.320Z,20.42
2023-05-22T14:01:50.933Z,19.77
2023-05-22T14:04:17.503Z,19.33
2023-05-22T14:06:44.164Z,18.08
2023-05-22T14:09:10.871Z,16.38
2023-05-22T14:11:37.482Z,16.73
2023-05-22T14:14:04.064Z,16.48
2023-05-22T14:16:30.720Z,17.70
2023-05-22T14:18:57.330Z,16.52
2023-05-22T14:21:23.850Z,16.75
2023-05-22T14:23:50.500Z,16.63
2023-05-22T14:26:18.085Z,15.40
2023-05-22T14:28:44.927Z,15.15
2023-05-22T14:31:11.493Z,15.95
2023-05-22T14:33:50.075Z,16.73
2023-05-22T14:36:26.153Z,14.52
2023-05-22T14:38:55.926Z,13.82
2023-05-22T14:41:22.436Z,15.18
2023-05-22T14:43:48.965Z,12.15
2023-05-22T14:46:15.683Z,13.63
2023-05-22T14:48:42.277Z,15.90
2023-05-22T15:15:21.137Z,15.27
2023-05-22T15:17:47.709Z,14.57
2023-05-22T15:20:14.308Z,15.75
2023-05-22T15:22:40.950Z,14.70
2023-05-22T15:25:09.687Z,15.13
2023-05-22T15:27:38.994Z,14.45
2023-05-22T15:30:06.792Z,14.30
2023-05-22T15:32:33.425Z,14.90
2023-05-22T15:35:00.107Z,15.15
2023-05-22T15:37:27.923Z,13.13
2023-05-22T15:39:55.537Z,13.18
2023-05-22T15:42:22.165Z,7.65
2023-05-22T15:44:48.684Z,13.10
2023-05-22T15:47:15.249Z,13.88
2023-05-22T15:49:41.759Z,5.45
2023-05-22T15:52:08.318Z,12.85
2023-05-22T15:54:34.884Z,11.73
2023-05-22T15:57:01.401Z,12.15
2023-05-22T15:59:27.956Z,10.10
2023-05-22T16:01:54.478Z,12.10
2023-05-22T16:04:24.246Z,4.68
2023-05-22T16:06:50.820Z,8.18
2023-05-22T16:09:21.950Z,10.88
2023-05-22T16:11:49.010Z,14.15
2023-05-22T16:14:15.672Z,13.68
2023-05-22T16:16:42.179Z,14.38
2023-05-22T16:19:08.780Z,15.10
2023-05-22T16:21:40.207Z,15.57
2023-05-22T16:24:07.051Z,16.23
2023-05-22T16:26:33.723Z,15.23
2023-05-22T16:29:00.297Z,14.32
2023-05-22T16:31:26.826Z,14.70
2023-05-22T16:33:53.372Z,15.82
2023-05-22T16:36:19.949Z,10.48
2023-05-22T16:38:46.833Z,18.17
2023-05-22T16:41:13.398Z,19.38
2023-05-22T16:43:39.904Z,17.70
2023-05-22T16:46:06.530Z,17.73
2023-05-22T16:48:33.074Z,19.20
2023-05-22T16:50:59.620Z,17.65
2023-05-22T16:53:26.156Z,16.70
2023-05-22T16:55:52.768Z,13.82
2023-05-22T16:58:19.551Z,14.73
2023-05-22T17:00:46.244Z,15.27
2023-05-22T17:03:14.095Z,15.88
2023-05-22T17:05:41.472Z,15.48
2023-05-22T17:08:08.577Z,15.52
2023-05-22T17:10:35.429Z,13.77
2023-05-22T17:13:02.063Z,15.05
2023-05-22T17:15:28.682Z,14.48
2023-05-22T17:17:55.498Z,13.52
2023-05-22T17:20:25.810Z,14.27
2023-05-22T17:22:52.504Z,14.80
2023-05-22T17:25:19.173Z,13.65
2023-05-22T17:27:46.448Z,14.52
2023-05-22T17:30:13.040Z,14.90
2023-05-22T17:32:39.709Z,14.70
2023-05-22T17:35:06.912Z,14.65
2023-05-22T17:37:33.988Z,14.95
2023-05-22T17:40:00.529Z,16.00
2023-05-22T17:42:27.091Z,16.48
2023-05-22T17:44:53.589Z,15.63
2023-05-22T17:47:20.165Z,16.88
2023-05-22T17:49:46.704Z,16.13
2023-05-22T17:52:13.438Z,17.48
2023-05-22T17:54:39.984Z,15.52
2023-05-22T17:57:06.545Z,16.17
2023-05-22T17:59:33.333Z,16.00
2023-05-22T18:02:00.012Z,16.58
2023-05-22T18:04:26.642Z,18.40
2023-05-22T18:06:53.149Z,15.85
2023-05-22T18:09:19.659Z,17.70
2023-05-22T18:11:46.246Z,15.90
2023-05-22T18:14:13.018Z,19.58
2023-05-22T18:16:39.534Z,18.02
2023-05-22T18:19:06.201Z,18.45
2023-05-22T18:21:32.816Z,20.42
2023-05-22T18:23:59.353Z,19.95
2023-05-22T18:26:26.870Z,19.42
2023-05-22T18:28:53.387Z,21.15
2023-05-22T18:31:20.231Z,19.10
2023-05-22T18:33:47.128Z,19.77
2023-05-22T18:36:13.758Z,21.75
2023-05-22T18:38:41.175Z,20.90
2023-05-22T18:41:07.825Z,21.88
2023-05-22T18:43:34.412Z,21.40
2023-05-22T18:46:00.988Z,21.85
2023-05-22T18:48:28.223Z,22.05
2023-05-22T18:50:57.360Z,20.55
2023-05-22T18:53:25.304Z,22.88
2023-05-22T18:55:52.528Z,22.45
2023-05-22T18:58:19.444Z,22.27
2023-05-22T19:00:46.245Z,22.98
2023-05-22T19:03:14.085Z,24.02
2023-05-22T19:05:41.087Z,23.65
2023-05-22T19:08:07.657Z,24.17
2023-05-22T19:10:34.309Z,24.70
2023-05-22T19:13:00.805Z,23.05
2023-05-22T19:15:27.343Z,21.92
2023-05-22T19:17:53.911Z,23.23
2023-05-22T19:20:20.460Z,23.23
2023-05-22T19:22:47.083Z,23.08
2023-05-22T19:25:13.719Z,23.30
2023-05-22T19:27:40.358Z,23.52
2023-05-22T19:30:07.425Z,23.67
2023-05-22T19:32:34.086Z,21.77
2023-05-22T19:35:00.731Z,20.70
2023-05-22T19:37:27.257Z,23.23
2023-05-22T19:39:54.245Z,13.95
2023-05-22T19:42:20.818Z,15.90
2023-05-22T19:44:47.421Z,11.23
2023-05-22T19:47:13.986Z,11.75
2023-05-22T19:49:40.546Z,10.73
2023-05-22T19:52:07.222Z,10.68
2023-05-22T19:54:35.169Z,8.75
2023-05-22T19:57:03.244Z,8.95
2023-05-22T19:59:29.758Z,9.35
2023-05-22T20:01:56.392Z,8.95
2023-05-22T20:04:23.169Z,9.30
2023-05-22T20:06:49.781Z,9.88
2023-05-22T20:09:16.332Z,7.95
2023-05-22T20:11:42.794Z,8.20
2023-05-22T20:14:09.431Z,9.25
2023-05-22T20:16:36.223Z,9.10
2023-05-22T20:19:04.092Z,9.60
2023-05-22T20:21:31.051Z,10.20
2023-05-22T20:23:57.700Z,9.48
2023-05-22T20:26:24.308Z,8.98
2023-05-22T20:28:50.931Z,9.05
2023-05-22T20:31:17.579Z,9.57
2023-05-22T20:33:44.235Z,11.32
2023-05-22T20:36:10.757Z,9.63
2023-05-22T20:38:37.331Z,10.63
2023-05-22T20:41:07.695Z,11.63
2023-05-22T20:43:35.883Z,10.90
2023-05-22T20:46:02.642Z,13.35
2023-05-22T20:48:34.694Z,11.60
2023-05-22T20:51:01.244Z,12.15
2023-05-22T20:53:27.818Z,11.43
2023-05-22T20:55:54.321Z,12.18
2023-05-22T20:58:22.925Z,12.35
2023-05-22T21:00:50.130Z,11.68
2023-05-22T21:03:17.721Z,11.45
2023-05-22T21:05:44.287Z,11.15
2023-05-22T21:08:10.784Z,11.27
2023-05-22T21:10:41.569Z,11.07
2023-05-22T21:13:08.490Z,11.57
2023-05-22T21:15:35.001Z,11.27
2023-05-22T21:18:01.522Z,11.68
2023-05-22T21:20:28.165Z,11.20
2023-05-22T21:22:54.680Z,11.52
2023-05-22T21:25:21.448Z,11.23
2023-05-22T21:27:49.249Z,11.70
2023-05-22T21:30:16.142Z,12.45
2023-05-22T21:32:43.141Z,12.15
2023-05-22T21:35:09.954Z,11.23
2023-05-22T21:37:36.481Z,11.68
2023-05-22T21:40:03.291Z,11.80
2023-05-22T21:42:41.943Z,10.55
2023-05-22T21:45:12.725Z,11.02
2023-05-22T21:47:39.303Z,11.52
2023-05-22T21:50:06.304Z,10.77
2023-05-22T21:52:32.858Z,9.82
2023-05-22T21:55:02.159Z,11.48
2023-05-22T21:57:28.752Z,11.50
2023-05-22T21:59:55.373Z,12.05
2023-05-22T22:02:21.999Z,11.48
2023-05-22T22:04:48.520Z,10.68
2023-05-22T22:07:15.119Z,10.93
2023-05-22T22:09:41.667Z,11.63
2023-05-22T22:12:08.192Z,11.65
2023-05-22T22:14:34.738Z,11.35
2023-05-22T22:17:01.273Z,11.77
2023-05-22T22:19:28.906Z,10.98
2023-05-22T22:21:55.671Z,11.32
2023-05-22T22:24:22.231Z,11.38
2023-05-22T22:26:49.260Z,10.93
2023-05-22T22:29:16.436Z,10.90
2023-05-22T22:31:43.026Z,12.20
2023-05-22T22:34:09.684Z,11.95
2023-05-22T22:36:36.189Z,12.32
2023-05-22T22:39:02.708Z,11.75
2023-05-22T22:41:29.258Z,11.55
2023-05-22T22:43:56.054Z,11.23
2023-05-22T22:46:22.648Z,11.38
2023-05-22T22:48:49.296Z,11.40
2023-05-22T22:51:15.784Z,11.68
2023-05-22T22:53:42.293Z,10.80
2023-05-22T22:56:08.967Z,10.95
2023-05-22T22:58:36.536Z,11.13
2023-05-22T23:01:05.127Z,10.25
2023-05-22T23:03:31.794Z,11.50
2023-05-22T23:05:58.296Z,11.88
2023-05-22T23:08:24.776Z,11.88
2023-05-22T23:10:51.276Z,11.13
2023-05-22T23:13:17.783Z,10.77
2023-05-22T23:15:44.505Z,10.52
2023-05-22T23:18:11.885Z,11.85
2023-05-22T23:20:38.477Z,11.13
2023-05-22T23:23:05.050Z,11.32
2023-05-22T23:25:31.616Z,12.20
2023-05-22T23:27:58.163Z,11.43
2023-05-22T23:30:24.710Z,11.82
2023-05-22T23:32:51.223Z,11.60
2023-05-22T23:35:17.773Z,11.63
2023-05-22T23:37:44.314Z,11.48
2023-05-22T23:40:11.406Z,10.60
2023-05-22T23:42:37.963Z,11.07
2023-05-22T23:45:04.792Z,11.43
2023-05-22T23:47:31.637Z,10.63
2023-05-22T23:49:59.616Z,9.85
2023-05-22T23:52:26.898Z,11.88
2023-05-22T23:54:53.511Z,10.27
2023-05-22T23:57:20.071Z,11.65
2023-05-22T23:59:46.581Z,10.88
